sensor_id;sensor_type;location;lat;lon;timestamp;P1;durP1;ratioP1;P2;durP2;ratioP2
71176;SDS011;58877;51.992;4.504;2024-01-15T00:00:55;6.36;;;3.58;;
71176;SDS011;58877;51.992;4.504;2024-01-15T00:03:20;7.02;;;3.97;;
71176;SDS011;58877;51.992;4.504;2024-01-15T00:05:46;5.36;;;3.03;;
71176;SDS011;58877;51.992;4.504;2024-01-15T00:08:12;6.24;;;3.53;;
71176;SDS011;58877;51.992;4.504;2024-01-15T00:10:37;6.04;;;3.39;;
71176;SDS011;58877;51.992;4.504;2024-01-15T00:13:06;6.99;;;3.94;;
71176;SDS011;58877;51.992;4.504;2024-01-15T00:15:34;5.50;;;3.10;;
71176;SDS011;58877;51.992;4.504;2024-01-15T00:18:00;6.07;;;3.42;;
71176;SDS011;58877;51.992;4.504;2024-01-15T00:20:25;6.95;;;3.90;;
71176;SDS011;58877;51.992;4.504;2024-01-15T00:22:54;6.16;;;3.44;;
71176;SDS011;58877;51.992;4.504;2024-01-15T00:25:20;6.86;;;3.85;;
71176;SDS011;58877;51.992;4.504;2024-01-15T00:27:49;8.44;;;4.70;;
71176;SDS011;58877;51.992;4.504;2024-01-15T00:30:16;7.14;;;3.94;;
71176;SDS011;58877;51.992;4.504;2024-01-15T00:32:44;7.65;;;4.21;;
71176;SDS011;58877;51.992;4.504;2024-01-15T00:35:10;7.25;;;4.01;;
71176;SDS011;58877;51.992;4.504;2024-01-15T00:37:36;7.43;;;4.13;;
71176;SDS011;58877;51.992;4.504;2024-01-15T00:40:01;7.30;;;4.09;;
71176;SDS011;58877;51.992;4.504;2024-01-15T00:42:27;7.63;;;4.30;;
71176;SDS011;58877;51.992;4.504;2024-01-15T00:44:52;7.43;;;4.19;;
71176;SDS011;58877;51.992;4.504;2024-01-15T00:47:19;6.33;;;3.57;;
71176;SDS011;58877;51.992;4.504;2024-01-15T00:49:45;6.40;;;3.59;;
71176;SDS011;58877;51.992;4.504;2024-01-15T00:52:17;6.76;;;3.80;;
71176;SDS011;58877;51.992;4.504;2024-01-15T00:54:42;7.00;;;3.92;;
71176;SDS011;58877;51.992;4.504;2024-01-15T00:57:08;6.28;;;3.55;;
71176;SDS011;58877;51.992;4.504;2024-01-15T00:59:34;5.34;;;3.02;;
71176;SDS011;58877;51.992;4.504;2024-01-15T01:02:03;5.30;;;2.97;;
71176;SDS011;58877;51.992;4.504;2024-01-15T01:04:41;6.63;;;3.71;;
71176;SDS011;58877;51.992;4.504;2024-01-15T01:07:19;6.92;;;3.87;;
71176;SDS011;58877;51.992;4.504;2024-01-15T01:09:45;4.90;;;2.75;;
71176;SDS011;58877;51.992;4.504;2024-01-15T01:12:21;5.55;;;3.11;;
71176;SDS011;58877;51.992;4.504;2024-01-15T01:14:53;4.97;;;2.77;;
71176;SDS011;58877;51.992;4.504;2024-01-15T01:17:18;5.77;;;3.22;;
71176;SDS011;58877;51.992;4.504;2024-01-15T01:19:44;5.52;;;3.07;;
71176;SDS011;58877;51.992;4.504;2024-01-15T01:22:09;6.70;;;3.70;;
71176;SDS011;58877;51.992;4.504;2024-01-15T01:24:35;6.88;;;3.80;;
71176;SDS011;58877;51.992;4.504;2024-01-15T01:27:01;6.95;;;3.83;;
71176;SDS011;58877;51.992;4.504;2024-01-15T01:29:32;5.61;;;3.08;;
71176;SDS011;58877;51.992;4.504;2024-01-15T01:32:09;6.72;;;3.74;;
71176;SDS011;58877;51.992;4.504;2024-01-15T01:34:39;6.37;;;3.57;;
71176;SDS011;58877;51.992;4.504;2024-01-15T01:37:11;4.70;;;2.63;;
71176;SDS011;58877;51.992;4.504;2024-01-15T01:39:43;6.41;;;3.61;;
71176;SDS011;58877;51.992;4.504;2024-01-15T01:42:13;6.79;;;3.78;;
71176;SDS011;58877;51.992;4.504;2024-01-15T01:44:39;4.93;;;2.75;;
71176;SDS011;58877;51.992;4.504;2024-01-15T01:47:05;5.14;;;2.87;;
71176;SDS011;58877;51.992;4.504;2024-01-15T01:49:33;5.40;;;3.01;;
71176;SDS011;58877;51.992;4.504;2024-01-15T01:52:01;5.93;;;3.30;;
71176;SDS011;58877;51.992;4.504;2024-01-15T01:54:33;5.95;;;3.31;;
71176;SDS011;58877;51.992;4.504;2024-01-15T01:57:06;4.78;;;2.65;;
71176;SDS011;58877;51.992;4.504;2024-01-15T01:59:36;5.84;;;3.24;;
71176;SDS011;58877;51.992;4.504;2024-01-15T02:02:06;4.56;;;2.53;;
71176;SDS011;58877;51.992;4.504;2024-01-15T02:04:32;5.59;;;3.10;;
71176;SDS011;58877;51.992;4.504;2024-01-15T02:07:10;5.45;;;3.03;;
71176;SDS011;58877;51.992;4.504;2024-01-15T02:09:46;5.72;;;3.22;;
71176;SDS011;58877;51.992;4.504;2024-01-15T02:12:12;5.53;;;3.08;;
71176;SDS011;58877;51.992;4.504;2024-01-15T02:14:50;6.24;;;3.45;;
71176;SDS011;58877;51.992;4.504;2024-01-15T02:17:19;5.24;;;2.88;;
71176;SDS011;58877;51.992;4.504;2024-01-15T02:19:47;5.33;;;2.92;;
71176;SDS011;58877;51.992;4.504;2024-01-15T02:22:22;7.26;;;3.98;;
71176;SDS011;58877;51.992;4.504;2024-01-15T02:24:47;4.56;;;2.51;;
71176;SDS011;58877;51.992;4.504;2024-01-15T02:27:14;3.95;;;2.17;;
71176;SDS011;58877;51.992;4.504;2024-01-15T02:29:40;4.02;;;2.21;;
71176;SDS011;58877;51.992;4.504;2024-01-15T02:32:14;3.14;;;1.74;;
71176;SDS011;58877;51.992;4.504;2024-01-15T02:34:47;3.19;;;1.77;;
71176;SDS011;58877;51.992;4.504;2024-01-15T02:37:25;2.96;;;1.64;;
71176;SDS011;58877;51.992;4.504;2024-01-15T02:39:53;3.37;;;1.88;;
71176;SDS011;58877;51.992;4.504;2024-01-15T02:42:19;3.90;;;2.16;;
71176;SDS011;58877;51.992;4.504;2024-01-15T02:44:45;3.00;;;1.66;;
71176;SDS011;58877;51.992;4.504;2024-01-15T02:47:10;2.81;;;1.56;;
71176;SDS011;58877;51.992;4.504;2024-01-15T02:49:36;4.22;;;2.34;;
71176;SDS011;58877;51.992;4.504;2024-01-15T02:52:02;3.05;;;1.68;;
71176;SDS011;58877;51.992;4.504;2024-01-15T02:54:28;2.00;;;1.11;;
71176;SDS011;58877;51.992;4.504;2024-01-15T02:56:53;3.28;;;1.81;;
71176;SDS011;58877;51.992;4.504;2024-01-15T02:59:19;2.11;;;1.16;;
71176;SDS011;58877;51.992;4.504;2024-01-15T03:01:44;3.06;;;1.68;;
71176;SDS011;58877;51.992;4.504;2024-01-15T03:04:10;3.80;;;2.09;;
71176;SDS011;58877;51.992;4.504;2024-01-15T03:06:36;3.74;;;2.07;;
71176;SDS011;58877;51.992;4.504;2024-01-15T03:09:02;2.85;;;1.58;;
71176;SDS011;58877;51.992;4.504;2024-01-15T03:11:28;3.70;;;2.06;;
71176;SDS011;58877;51.992;4.504;2024-01-15T03:13:54;3.25;;;1.82;;
71176;SDS011;58877;51.992;4.504;2024-01-15T03:16:20;3.07;;;1.71;;
71176;SDS011;58877;51.992;4.504;2024-01-15T03:18:46;3.04;;;1.70;;
71176;SDS011;58877;51.992;4.504;2024-01-15T03:21:12;3.21;;;1.80;;
71176;SDS011;58877;51.992;4.504;2024-01-15T03:23:37;4.02;;;2.26;;
71176;SDS011;58877;51.992;4.504;2024-01-15T03:26:03;3.24;;;1.82;;
71176;SDS011;58877;51.992;4.504;2024-01-15T03:28:28;3.46;;;1.96;;
71176;SDS011;58877;51.992;4.504;2024-01-15T03:30:55;4.30;;;2.41;;
71176;SDS011;58877;51.992;4.504;2024-01-15T03:33:21;3.96;;;2.23;;
71176;SDS011;58877;51.992;4.504;2024-01-15T03:35:47;3.91;;;2.20;;
71176;SDS011;58877;51.992;4.504;2024-01-15T03:38:12;4.95;;;2.77;;
71176;SDS011;58877;51.992;4.504;2024-01-15T03:40:38;4.45;;;2.48;;
71176;SDS011;58877;51.992;4.504;2024-01-15T03:43:04;5.76;;;3.20;;
71176;SDS011;58877;51.992;4.504;2024-01-15T03:45:29;4.05;;;2.26;;
71176;SDS011;58877;51.992;4.504;2024-01-15T03:47:55;4.92;;;2.75;;
71176;SDS011;58877;51.992;4.504;2024-01-15T03:50:23;4.70;;;2.61;;
71176;SDS011;58877;51.992;4.504;2024-01-15T03:52:51;5.18;;;2.87;;
71176;SDS011;58877;51.992;4.504;2024-01-15T03:55:17;5.25;;;2.91;;
71176;SDS011;58877;51.992;4.504;2024-01-15T03:57:43;3.88;;;2.15;;
71176;SDS011;58877;51.992;4.504;2024-01-15T04:00:09;4.72;;;2.61;;
71176;SDS011;58877;51.992;4.504;2024-01-15T04:02:35;4.08;;;2.26;;
71176;SDS011;58877;51.992;4.504;2024-01-15T04:05:00;4.35;;;2.41;;
71176;SDS011;58877;51.992;4.504;2024-01-15T04:07:26;3.20;;;1.78;;
71176;SDS011;58877;51.992;4.504;2024-01-15T04:09:51;4.73;;;2.63;;
71176;SDS011;58877;51.992;4.504;2024-01-15T04:12:17;3.97;;;2.21;;
71176;SDS011;58877;51.992;4.504;2024-01-15T04:14:42;4.89;;;2.72;;
71176;SDS011;58877;51.992;4.504;2024-01-15T04:17:08;4.41;;;2.43;;
71176;SDS011;58877;51.992;4.504;2024-01-15T04:19:33;5.36;;;2.94;;
71176;SDS011;58877;51.992;4.504;2024-01-15T04:21:59;4.81;;;2.65;;
71176;SDS011;58877;51.992;4.504;2024-01-15T04:24:24;4.03;;;2.22;;
71176;SDS011;58877;51.992;4.504;2024-01-15T04:26:50;3.92;;;2.16;;
71176;SDS011;58877;51.992;4.504;2024-01-15T04:29:16;2.01;;;1.11;;
71176;SDS011;58877;51.992;4.504;2024-01-15T04:31:42;2.25;;;1.25;;
71176;SDS011;58877;51.992;4.504;2024-01-15T04:34:07;2.31;;;1.29;;
71176;SDS011;58877;51.992;4.504;2024-01-15T04:36:38;1.92;;;1.08;;
71176;SDS011;58877;51.992;4.504;2024-01-15T04:39:04;3.20;;;1.81;;
71176;SDS011;58877;51.992;4.504;2024-01-15T04:41:30;2.51;;;1.42;;
71176;SDS011;58877;51.992;4.504;2024-01-15T04:43:55;3.82;;;2.17;;
71176;SDS011;58877;51.992;4.504;2024-01-15T04:46:21;2.09;;;1.19;;
71176;SDS011;58877;51.992;4.504;2024-01-15T04:48:46;2.15;;;1.21;;
71176;SDS011;58877;51.992;4.504;2024-01-15T04:51:12;1.51;;;0.86;;
71176;SDS011;58877;51.992;4.504;2024-01-15T04:53:41;2.67;;;1.53;;
71176;SDS011;58877;51.992;4.504;2024-01-15T04:56:07;2.10;;;1.21;;
71176;SDS011;58877;51.992;4.504;2024-01-15T04:58:32;2.03;;;1.17;;
71176;SDS011;58877;51.992;4.504;2024-01-15T05:00:58;2.31;;;1.33;;
71176;SDS011;58877;51.992;4.504;2024-01-15T05:03:23;1.81;;;1.04;;
71176;SDS011;58877;51.992;4.504;2024-01-15T05:05:49;1.55;;;0.88;;
71176;SDS011;58877;51.992;4.504;2024-01-15T05:08:14;1.39;;;0.79;;
71176;SDS011;58877;51.992;4.504;2024-01-15T05:10:40;2.43;;;1.39;;
71176;SDS011;58877;51.992;4.504;2024-01-15T05:13:05;1.60;;;0.92;;
71176;SDS011;58877;51.992;4.504;2024-01-15T05:15:34;2.91;;;1.66;;
71176;SDS011;58877;51.992;4.504;2024-01-15T05:17:59;2.45;;;1.40;;
71176;SDS011;58877;51.992;4.504;2024-01-15T05:20:25;2.39;;;1.37;;
71176;SDS011;58877;51.992;4.504;2024-01-15T05:22:56;1.95;;;1.13;;
71176;SDS011;58877;51.992;4.504;2024-01-15T05:25:21;1.46;;;0.85;;
71176;SDS011;58877;51.992;4.504;2024-01-15T05:27:47;2.09;;;1.23;;
71176;SDS011;58877;51.992;4.504;2024-01-15T05:30:12;2.27;;;1.34;;
71176;SDS011;58877;51.992;4.504;2024-01-15T05:32:38;2.15;;;1.28;;
71176;SDS011;58877;51.992;4.504;2024-01-15T05:35:04;2.75;;;1.64;;
71176;SDS011;58877;51.992;4.504;2024-01-15T05:37:30;2.24;;;1.33;;
71176;SDS011;58877;51.992;4.504;2024-01-15T05:39:55;2.08;;;1.24;;
71176;SDS011;58877;51.992;4.504;2024-01-15T05:42:21;3.84;;;2.29;;
71176;SDS011;58877;51.992;4.504;2024-01-15T05:44:47;2.90;;;1.72;;
71176;SDS011;58877;51.992;4.504;2024-01-15T05:47:12;3.36;;;1.99;;
71176;SDS011;58877;51.992;4.504;2024-01-15T05:49:38;2.83;;;1.68;;
71176;SDS011;58877;51.992;4.504;2024-01-15T05:52:04;3.04;;;1.81;;
71176;SDS011;58877;51.992;4.504;2024-01-15T05:54:29;3.37;;;2.00;;
71176;SDS011;58877;51.992;4.504;2024-01-15T05:56:55;3.66;;;2.15;;
71176;SDS011;58877;51.992;4.504;2024-01-15T05:59:20;3.43;;;2.02;;
71176;SDS011;58877;51.992;4.504;2024-01-15T06:01:46;3.82;;;2.24;;
71176;SDS011;58877;51.992;4.504;2024-01-15T06:04:12;3.30;;;1.94;;
71176;SDS011;58877;51.992;4.504;2024-01-15T06:06:37;4.03;;;2.35;;
71176;SDS011;58877;51.992;4.504;2024-01-15T06:09:03;4.43;;;2.56;;
71176;SDS011;58877;51.992;4.504;2024-01-15T06:11:34;3.60;;;2.07;;
71176;SDS011;58877;51.992;4.504;2024-01-15T06:13:59;4.85;;;2.79;;
71176;SDS011;58877;51.992;4.504;2024-01-15T06:16:28;4.29;;;2.45;;
71176;SDS011;58877;51.992;4.504;2024-01-15T06:18:54;3.66;;;2.07;;
71176;SDS011;58877;51.992;4.504;2024-01-15T06:21:20;3.29;;;1.86;;
71176;SDS011;58877;51.992;4.504;2024-01-15T06:23:45;3.52;;;1.99;;
71176;SDS011;58877;51.992;4.504;2024-01-15T06:26:11;2.20;;;1.24;;
71176;SDS011;58877;51.992;4.504;2024-01-15T06:28:37;1.83;;;1.04;;
71176;SDS011;58877;51.992;4.504;2024-01-15T06:31:03;2.97;;;1.68;;
71176;SDS011;58877;51.992;4.504;2024-01-15T06:33:29;2.14;;;1.21;;
71176;SDS011;58877;51.992;4.504;2024-01-15T06:35:54;2.23;;;1.26;;
71176;SDS011;58877;51.992;4.504;2024-01-15T06:38:21;3.15;;;1.78;;
71176;SDS011;58877;51.992;4.504;2024-01-15T06:40:46;2.55;;;1.44;;
71176;SDS011;58877;51.992;4.504;2024-01-15T06:43:18;2.73;;;1.54;;
71176;SDS011;58877;51.992;4.504;2024-01-15T06:45:44;2.37;;;1.34;;
71176;SDS011;58877;51.992;4.504;2024-01-15T06:48:09;2.74;;;1.56;;
71176;SDS011;58877;51.992;4.504;2024-01-15T06:50:37;3.56;;;2.04;;
71176;SDS011;58877;51.992;4.504;2024-01-15T06:53:03;3.93;;;2.27;;
71176;SDS011;58877;51.992;4.504;2024-01-15T06:55:28;4.05;;;2.35;;
71176;SDS011;58877;51.992;4.504;2024-01-15T06:57:54;2.91;;;1.70;;
71176;SDS011;58877;51.992;4.504;2024-01-15T07:00:20;3.25;;;1.91;;
71176;SDS011;58877;51.992;4.504;2024-01-15T07:02:45;3.45;;;2.02;;
71176;SDS011;58877;51.992;4.504;2024-01-15T07:05:11;3.11;;;1.82;;
71176;SDS011;58877;51.992;4.504;2024-01-15T07:07:37;3.07;;;1.79;;
71176;SDS011;58877;51.992;4.504;2024-01-15T07:10:03;3.75;;;2.18;;
71176;SDS011;58877;51.992;4.504;2024-01-15T07:12:29;4.97;;;2.89;;
71176;SDS011;58877;51.992;4.504;2024-01-15T07:14:56;4.03;;;2.35;;
71176;SDS011;58877;51.992;4.504;2024-01-15T07:17:22;4.54;;;2.62;;
71176;SDS011;58877;51.992;4.504;2024-01-15T07:19:47;3.94;;;2.29;;
71176;SDS011;58877;51.992;4.504;2024-01-15T07:22:13;3.85;;;2.26;;
71176;SDS011;58877;51.992;4.504;2024-01-15T07:24:43;4.10;;;2.41;;
71176;SDS011;58877;51.992;4.504;2024-01-15T07:27:09;5.58;;;3.28;;
71176;SDS011;58877;51.992;4.504;2024-01-15T07:29:35;4.34;;;2.57;;
71176;SDS011;58877;51.992;4.504;2024-01-15T07:32:04;4.66;;;2.76;;
71176;SDS011;58877;51.992;4.504;2024-01-15T07:34:30;5.04;;;2.99;;
71176;SDS011;58877;51.992;4.504;2024-01-15T07:36:56;4.61;;;2.71;;
71176;SDS011;58877;51.992;4.504;2024-01-15T07:39:22;4.51;;;2.64;;
71176;SDS011;58877;51.992;4.504;2024-01-15T07:41:50;4.61;;;2.70;;
71176;SDS011;58877;51.992;4.504;2024-01-15T07:44:18;5.04;;;2.95;;
71176;SDS011;58877;51.992;4.504;2024-01-15T07:46:44;4.92;;;2.87;;
71176;SDS011;58877;51.992;4.504;2024-01-15T07:49:10;5.99;;;3.51;;
71176;SDS011;58877;51.992;4.504;2024-01-15T07:51:36;6.65;;;3.87;;
71176;SDS011;58877;51.992;4.504;2024-01-15T07:54:02;5.68;;;3.30;;
71176;SDS011;58877;51.992;4.504;2024-01-15T07:56:28;6.36;;;3.66;;
71176;SDS011;58877;51.992;4.504;2024-01-15T07:58:54;5.85;;;3.37;;
71176;SDS011;58877;51.992;4.504;2024-01-15T08:01:21;6.13;;;3.48;;
71176;SDS011;58877;51.992;4.504;2024-01-15T08:03:47;5.06;;;2.84;;
71176;SDS011;58877;51.992;4.504;2024-01-15T08:06:13;4.70;;;2.66;;
71176;SDS011;58877;51.992;4.504;2024-01-15T08:08:39;6.94;;;3.92;;
71176;SDS011;58877;51.992;4.504;2024-01-15T08:11:04;7.37;;;4.18;;
71176;SDS011;58877;51.992;4.504;2024-01-15T08:13:30;7.52;;;4.24;;
71176;SDS011;58877;51.992;4.504;2024-01-15T08:15:56;7.02;;;3.97;;
71176;SDS011;58877;51.992;4.504;2024-01-15T08:18:21;6.06;;;3.43;;
71176;SDS011;58877;51.992;4.504;2024-01-15T08:20:47;4.93;;;2.80;;
71176;SDS011;58877;51.992;4.504;2024-01-15T08:23:13;6.02;;;3.44;;
71176;SDS011;58877;51.992;4.504;2024-01-15T08:25:39;5.67;;;3.23;;
71176;SDS011;58877;51.992;4.504;2024-01-15T08:28:04;4.46;;;2.54;;
71176;SDS011;58877;51.992;4.504;2024-01-15T08:30:30;4.06;;;2.33;;
71176;SDS011;58877;51.992;4.504;2024-01-15T08:32:58;3.99;;;2.28;;
71176;SDS011;58877;51.992;4.504;2024-01-15T08:35:25;3.87;;;2.21;;
71176;SDS011;58877;51.992;4.504;2024-01-15T08:37:51;4.12;;;2.36;;
71176;SDS011;58877;51.992;4.504;2024-01-15T08:40:19;4.03;;;2.31;;
71176;SDS011;58877;51.992;4.504;2024-01-15T08:42:45;3.74;;;2.16;;
71176;SDS011;58877;51.992;4.504;2024-01-15T08:45:11;4.25;;;2.45;;
71176;SDS011;58877;51.992;4.504;2024-01-15T08:47:37;4.53;;;2.62;;
71176;SDS011;58877;51.992;4.504;2024-01-15T08:50:02;3.88;;;2.25;;
71176;SDS011;58877;51.992;4.504;2024-01-15T08:52:29;4.52;;;2.61;;
71176;SDS011;58877;51.992;4.504;2024-01-15T08:54:58;3.02;;;1.73;;
71176;SDS011;58877;51.992;4.504;2024-01-15T08:57:23;2.18;;;1.25;;
71176;SDS011;58877;51.992;4.504;2024-01-15T08:59:49;3.14;;;1.81;;
71176;SDS011;58877;51.992;4.504;2024-01-15T09:02:16;1.22;;;0.71;;
71176;SDS011;58877;51.992;4.504;2024-01-15T09:04:41;2.07;;;1.20;;
71176;SDS011;58877;51.992;4.504;2024-01-15T09:07:07;2.66;;;1.54;;
71176;SDS011;58877;51.992;4.504;2024-01-15T09:09:33;3.49;;;2.03;;
71176;SDS011;58877;51.992;4.504;2024-01-15T09:12:00;2.93;;;1.70;;
71176;SDS011;58877;51.992;4.504;2024-01-15T09:14:25;4.28;;;2.46;;
71176;SDS011;58877;51.992;4.504;2024-01-15T09:16:52;4.52;;;2.59;;
71176;SDS011;58877;51.992;4.504;2024-01-15T09:19:18;4.24;;;2.43;;
71176;SDS011;58877;51.992;4.504;2024-01-15T09:21:44;4.20;;;2.37;;
71176;SDS011;58877;51.992;4.504;2024-01-15T09:24:10;5.47;;;3.08;;
71176;SDS011;58877;51.992;4.504;2024-01-15T09:26:36;5.85;;;3.28;;
71176;SDS011;58877;51.992;4.504;2024-01-15T09:29:02;5.71;;;3.24;;
71176;SDS011;58877;51.992;4.504;2024-01-15T09:31:28;4.68;;;2.65;;
71176;SDS011;58877;51.992;4.504;2024-01-15T09:33:54;5.19;;;2.95;;
71176;SDS011;58877;51.992;4.504;2024-01-15T09:36:24;5.25;;;2.98;;
71176;SDS011;58877;51.992;4.504;2024-01-15T09:38:50;5.50;;;3.14;;
71176;SDS011;58877;51.992;4.504;2024-01-15T09:41:16;5.54;;;3.14;;
71176;SDS011;58877;51.992;4.504;2024-01-15T09:43:42;5.72;;;3.28;;
71176;SDS011;58877;51.992;4.504;2024-01-15T09:46:08;4.53;;;2.62;;
71176;SDS011;58877;51.992;4.504;2024-01-15T09:48:35;3.78;;;2.19;;
71176;SDS011;58877;51.992;4.504;2024-01-15T09:51:01;4.22;;;2.43;;
71176;SDS011;58877;51.992;4.504;2024-01-15T09:53:27;3.89;;;2.26;;
71176;SDS011;58877;51.992;4.504;2024-01-15T09:55:53;3.59;;;2.10;;
71176;SDS011;58877;51.992;4.504;2024-01-15T09:58:19;2.89;;;1.68;;
71176;SDS011;58877;51.992;4.504;2024-01-15T10:00:46;3.22;;;1.87;;
71176;SDS011;58877;51.992;4.504;2024-01-15T10:03:15;2.60;;;1.51;;
71176;SDS011;58877;51.992;4.504;2024-01-15T10:05:41;3.19;;;1.85;;
71176;SDS011;58877;51.992;4.504;2024-01-15T10:08:07;3.41;;;1.99;;
71176;SDS011;58877;51.992;4.504;2024-01-15T10:10:35;3.18;;;1.86;;
71176;SDS011;58877;51.992;4.504;2024-01-15T10:13:01;3.10;;;1.79;;
71176;SDS011;58877;51.992;4.504;2024-01-15T10:15:29;3.53;;;2.03;;
71176;SDS011;58877;51.992;4.504;2024-01-15T10:17:55;3.29;;;1.91;;
71176;SDS011;58877;51.992;4.504;2024-01-15T10:20:21;3.99;;;2.30;;
71176;SDS011;58877;51.992;4.504;2024-01-15T10:22:49;2.62;;;1.50;;
71176;SDS011;58877;51.992;4.504;2024-01-15T10:25:16;3.59;;;2.03;;
71176;SDS011;58877;51.992;4.504;2024-01-15T10:27:47;4.32;;;2.44;;
71176;SDS011;58877;51.992;4.504;2024-01-15T10:30:27;3.70;;;2.11;;
71176;SDS011;58877;51.992;4.504;2024-01-15T10:32:59;4.40;;;2.52;;
71176;SDS011;58877;51.992;4.504;2024-01-15T10:35:30;3.38;;;1.92;;
71176;SDS011;58877;51.992;4.504;2024-01-15T10:38:00;4.45;;;2.52;;
71176;SDS011;58877;51.992;4.504;2024-01-15T10:40:26;4.22;;;2.39;;
71176;SDS011;58877;51.992;4.504;2024-01-15T10:42:52;5.19;;;2.93;;
71176;SDS011;58877;51.992;4.504;2024-01-15T10:45:18;3.84;;;2.16;;
71176;SDS011;58877;51.992;4.504;2024-01-15T10:47:44;5.05;;;2.86;;
71176;SDS011;58877;51.992;4.504;2024-01-15T10:50:10;4.24;;;2.42;;
71176;SDS011;58877;51.992;4.504;2024-01-15T10:52:36;6.79;;;3.87;;
71176;SDS011;58877;51.992;4.504;2024-01-15T10:55:06;3.32;;;1.89;;
71176;SDS011;58877;51.992;4.504;2024-01-15T10:57:34;3.87;;;2.22;;
71176;SDS011;58877;51.992;4.504;2024-01-15T11:00:02;3.56;;;2.04;;
71176;SDS011;58877;51.992;4.504;2024-01-15T11:02:31;4.02;;;2.31;;
71176;SDS011;58877;51.992;4.504;2024-01-15T11:05:00;3.58;;;2.05;;
71176;SDS011;58877;51.992;4.504;2024-01-15T11:07:26;3.92;;;2.25;;
71176;SDS011;58877;51.992;4.504;2024-01-15T11:09:52;3.81;;;2.18;;
71176;SDS011;58877;51.992;4.504;2024-01-15T11:12:18;3.82;;;2.18;;
71176;SDS011;58877;51.992;4.504;2024-01-15T11:14:48;3.58;;;2.03;;
71176;SDS011;58877;51.992;4.504;2024-01-15T11:17:15;4.90;;;2.77;;
71176;SDS011;58877;51.992;4.504;2024-01-15T11:19:46;3.71;;;2.11;;
71176;SDS011;58877;51.992;4.504;2024-01-15T11:24:57;3.40;;;1.97;;
71176;SDS011;58877;51.992;4.504;2024-01-15T11:27:40;3.61;;;2.08;;
71176;SDS011;58877;51.992;4.504;2024-01-15T11:30:12;3.15;;;1.81;;
71176;SDS011;58877;51.992;4.504;2024-01-15T11:32:40;3.88;;;2.23;;
71176;SDS011;58877;51.992;4.504;2024-01-15T11:35:06;3.57;;;2.06;;
71176;SDS011;58877;51.992;4.504;2024-01-15T11:40:22;2.78;;;1.59;;
71176;SDS011;58877;51.992;4.504;2024-01-15T11:42:58;3.91;;;2.23;;
71176;SDS011;58877;51.992;4.504;2024-01-15T11:45:24;5.32;;;3.01;;
71176;SDS011;58877;51.992;4.504;2024-01-15T11:50:21;4.08;;;2.30;;
71176;SDS011;58877;51.992;4.504;2024-01-15T11:52:56;3.76;;;2.13;;
71176;SDS011;58877;51.992;4.504;2024-01-15T11:55:27;4.51;;;2.57;;
71176;SDS011;58877;51.992;4.504;2024-01-15T11:58:01;5.29;;;3.00;;
71176;SDS011;58877;51.992;4.504;2024-01-15T12:00:28;4.92;;;2.80;;
71176;SDS011;58877;51.992;4.504;2024-01-15T12:02:54;5.30;;;3.03;;
71176;SDS011;58877;51.992;4.504;2024-01-15T12:05:21;5.09;;;2.93;;
71176;SDS011;58877;51.992;4.504;2024-01-15T12:07:47;4.88;;;2.82;;
71176;SDS011;58877;51.992;4.504;2024-01-15T12:10:18;6.56;;;3.78;;
71176;SDS011;58877;51.992;4.504;2024-01-15T12:15:30;6.02;;;3.44;;
71176;SDS011;58877;51.992;4.504;2024-01-15T12:17:58;6.83;;;3.88;;
71176;SDS011;58877;51.992;4.504;2024-01-15T12:20:25;5.92;;;3.38;;
71176;SDS011;58877;51.992;4.504;2024-01-15T12:22:52;6.42;;;3.66;;
71176;SDS011;58877;51.992;4.504;2024-01-15T12:25:18;6.66;;;3.75;;
71176;SDS011;58877;51.992;4.504;2024-01-15T12:27:44;7.41;;;4.15;;
71176;SDS011;58877;51.992;4.504;2024-01-15T12:30:12;7.50;;;4.23;;
71176;SDS011;58877;51.992;4.504;2024-01-15T12:32:39;5.82;;;3.29;;
71176;SDS011;58877;51.992;4.504;2024-01-15T12:35:07;6.68;;;3.78;;
71176;SDS011;58877;51.992;4.504;2024-01-15T12:37:35;6.41;;;3.64;;
71176;SDS011;58877;51.992;4.504;2024-01-15T12:40:12;5.34;;;3.08;;
71176;SDS011;58877;51.992;4.504;2024-01-15T12:42:40;3.90;;;2.28;;
71176;SDS011;58877;51.992;4.504;2024-01-15T12:45:06;4.71;;;2.74;;
71176;SDS011;58877;51.992;4.504;2024-01-15T12:47:33;5.92;;;3.42;;
71176;SDS011;58877;51.992;4.504;2024-01-15T12:49:59;5.64;;;3.26;;
71176;SDS011;58877;51.992;4.504;2024-01-15T12:52:28;5.33;;;3.09;;
71176;SDS011;58877;51.992;4.504;2024-01-15T12:54:55;5.75;;;3.38;;
71176;SDS011;58877;51.992;4.504;2024-01-15T12:57:21;6.66;;;3.94;;
71176;SDS011;58877;51.992;4.504;2024-01-15T12:59:47;7.04;;;4.13;;
71176;SDS011;58877;51.992;4.504;2024-01-15T13:02:13;7.21;;;4.17;;
71176;SDS011;58877;51.992;4.504;2024-01-15T13:04:40;7.79;;;4.53;;
71176;SDS011;58877;51.992;4.504;2024-01-15T13:07:06;6.45;;;3.69;;
71176;SDS011;58877;51.992;4.504;2024-01-15T13:09:32;6.98;;;4.01;;
71176;SDS011;58877;51.992;4.504;2024-01-15T13:11:58;6.69;;;3.86;;
71176;SDS011;58877;51.992;4.504;2024-01-15T13:14:24;6.58;;;3.84;;
71176;SDS011;58877;51.992;4.504;2024-01-15T13:16:50;6.54;;;3.82;;
71176;SDS011;58877;51.992;4.504;2024-01-15T13:19:16;5.35;;;3.14;;
71176;SDS011;58877;51.992;4.504;2024-01-15T13:21:42;6.02;;;3.51;;
71176;SDS011;58877;51.992;4.504;2024-01-15T13:24:08;6.69;;;3.85;;
71176;SDS011;58877;51.992;4.504;2024-01-15T13:26:34;6.92;;;3.98;;
71176;SDS011;58877;51.992;4.504;2024-01-15T13:29:03;5.05;;;2.90;;
71176;SDS011;58877;51.992;4.504;2024-01-15T13:31:30;5.11;;;2.92;;
71176;SDS011;58877;51.992;4.504;2024-01-15T13:33:55;4.42;;;2.53;;
71176;SDS011;58877;51.992;4.504;2024-01-15T13:36:22;3.99;;;2.27;;
71176;SDS011;58877;51.992;4.504;2024-01-15T13:38:51;3.69;;;2.08;;
71176;SDS011;58877;51.992;4.504;2024-01-15T13:41:19;3.94;;;2.23;;
71176;SDS011;58877;51.992;4.504;2024-01-15T13:43:49;4.76;;;2.70;;
71176;SDS011;58877;51.992;4.504;2024-01-15T13:46:18;4.44;;;2.52;;
71176;SDS011;58877;51.992;4.504;2024-01-15T13:48:47;5.28;;;3.01;;
71176;SDS011;58877;51.992;4.504;2024-01-15T13:51:13;5.20;;;3.00;;
71176;SDS011;58877;51.992;4.504;2024-01-15T13:53:38;5.15;;;2.98;;
71176;SDS011;58877;51.992;4.504;2024-01-15T13:56:05;4.70;;;2.73;;
71176;SDS011;58877;51.992;4.504;2024-01-15T13:58:32;5.29;;;3.08;;
71176;SDS011;58877;51.992;4.504;2024-01-15T14:01:01;5.17;;;3.02;;
71176;SDS011;58877;51.992;4.504;2024-01-15T14:03:29;4.55;;;2.65;;
71176;SDS011;58877;51.992;4.504;2024-01-15T14:05:54;6.37;;;3.73;;
71176;SDS011;58877;51.992;4.504;2024-01-15T14:08:20;5.61;;;3.31;;
71176;SDS011;58877;51.992;4.504;2024-01-15T14:10:46;6.20;;;3.70;;
71176;SDS011;58877;51.992;4.504;2024-01-15T14:13:12;4.81;;;2.90;;
71176;SDS011;58877;51.992;4.504;2024-01-15T14:15:38;5.56;;;3.32;;
71176;SDS011;58877;51.992;4.504;2024-01-15T14:18:04;5.40;;;3.24;;
71176;SDS011;58877;51.992;4.504;2024-01-15T14:20:30;6.77;;;4.03;;
71176;SDS011;58877;51.992;4.504;2024-01-15T14:22:56;6.68;;;3.91;;
71176;SDS011;58877;51.992;4.504;2024-01-15T14:25:21;5.90;;;3.46;;
71176;SDS011;58877;51.992;4.504;2024-01-15T14:27:47;6.55;;;3.85;;
71176;SDS011;58877;51.992;4.504;2024-01-15T14:30:25;6.29;;;3.72;;
71176;SDS011;58877;51.992;4.504;2024-01-15T14:32:51;5.85;;;3.44;;
71176;SDS011;58877;51.992;4.504;2024-01-15T14:35:16;6.34;;;3.70;;
71176;SDS011;58877;51.992;4.504;2024-01-15T14:37:42;6.04;;;3.54;;
71176;SDS011;58877;51.992;4.504;2024-01-15T14:40:08;5.88;;;3.45;;
71176;SDS011;58877;51.992;4.504;2024-01-15T14:42:35;5.79;;;3.38;;
71176;SDS011;58877;51.992;4.504;2024-01-15T14:45:02;5.60;;;3.28;;
71176;SDS011;58877;51.992;4.504;2024-01-15T14:47:29;6.05;;;3.57;;
71176;SDS011;58877;51.992;4.504;2024-01-15T14:49:56;5.20;;;3.02;;
71176;SDS011;58877;51.992;4.504;2024-01-15T14:52:22;6.01;;;3.48;;
71176;SDS011;58877;51.992;4.504;2024-01-15T14:54:48;6.90;;;4.01;;
71176;SDS011;58877;51.992;4.504;2024-01-15T14:57:14;6.86;;;4.00;;